Rosetown, Canada
Current Conditions -  °F | °C
As of 12:00 AM on Monday 22 Dec 2014 (Local Time) from CYKY Reporting Station
Light Snow Light Snow  
Wind Chill:   Ceiling: 1500
Heat Index: 19°   Visibility: 3mi
Dew Point: 18°   Wind: 10mph
Humidity: 93%   Direction: 320°NW
Pressure: 29.55"   Gusts: NA
Location:  51.55°N, 107.99°W
Report Text: CYKY 220600Z 32009KT 3SM -SN OVC015 M07/M08 A2955 RMK SC8 /S04/ SLP045
Loading
Personal Weather Stations






























Interactive Weather Map New forecast layout! Learn more

10-Day Weather Forecast

Advertisements
Track Severe Weather on mobile